Time;durP1;ratioP1;P1;durP2;ratioP2;P2;SDS_P1;SDS_P2;PMS_P1;PMS_P2;Temp;Humidity;BMP_temperature;BMP_pressure;BME280_temperature;BME280_humidity;BME280_pressure;Samples;Min_cycle;Max_cycle;Signal;HPM_P1;HPM_P2
2023/10/12 00:02:26;;;;;;;39.78;35.42;;;22.20;99.90;;;;;;5067381;28;20055;-69
2023/10/12 00:10:44;;;;;;;38.13;33.55;;;22.00;99.90;;;;;;5066659;28;20048;-69
2023/10/12 00:12:52;;;;;;;34.00;30.48;;;22.00;99.90;;;;;;5057823;28;20128;-70
2023/10/12 00:15:28;;;;;;;32.00;28.40;;;21.90;99.90;;;;;;5065019;28;20115;-69
2023/10/12 00:17:57;;;;;;;37.55;32.03;;;21.40;99.90;;;;;;5065953;28;20098;-68
2023/10/12 00:20:35;;;;;;;33.58;29.13;;;21.50;99.90;;;;;;5067524;28;20067;-69
2023/10/12 00:23:14;;;;;;;36.55;31.80;;;21.50;99.90;;;;;;5065760;28;20041;-69
2023/10/12 00:25:45;;;;;;;34.17;30.48;;;21.70;99.90;;;;;;5065183;28;20040;-68
2023/10/12 00:28:16;;;;;;;34.72;30.27;;;21.80;99.90;;;;;;5066055;28;20037;-69
2023/10/12 00:30:43;;;;;;;34.97;30.38;;;21.40;99.90;;;;;;5067803;28;20115;-69
2023/10/12 00:33:09;;;;;;;34.70;31.40;;;21.40;99.90;;;;;;5066169;28;20102;-68
2023/10/12 00:35:39;;;;;;;33.45;29.63;;;21.40;99.90;;;;;;5065489;28;20468;-69
2023/10/12 00:38:16;;;;;;;36.63;30.92;;;21.70;99.90;;;;;;5083064;28;20090;-69
2023/10/12 00:40:55;;;;;;;40.53;30.73;;;21.60;99.90;;;;;;5082516;28;20514;-69
2023/10/12 00:43:21;;;;;;;31.13;27.48;;;21.70;99.90;;;;;;5067030;28;20101;-69
2023/10/12 00:45:47;;;;;;;29.77;26.63;;;21.60;99.90;;;;;;5064644;28;20512;-69
2023/10/12 00:48:16;;;;;;;29.83;27.00;;;21.40;99.90;;;;;;5065148;28;20044;-69
2023/10/12 00:50:44;;;;;;;35.65;28.70;;;21.70;99.90;;;;;;5070152;28;20037;-63
2023/10/12 00:53:22;;;;;;;31.77;28.38;;;21.40;99.90;;;;;;5071469;28;20048;-63
2023/10/12 00:55:49;;;;;;;30.55;26.48;;;21.80;99.90;;;;;;5070400;28;20456;-63
2023/10/12 00:58:17;;;;;;;40.83;29.67;;;21.40;99.90;;;;;;5071546;28;20047;-64
2023/10/12 01:00:46;;;;;;;33.75;29.40;;;21.50;99.90;;;;;;5068235;28;20051;-64
2023/10/12 01:08:35;;;;;;;35.00;26.73;;;21.70;99.90;;;;;;5067467;28;20079;-64
2023/10/12 01:11:06;;;;;;;31.83;26.85;;;21.50;99.90;;;;;;5070729;28;20673;-64
2023/10/12 01:13:35;;;;;;;31.20;27.98;;;21.40;99.90;;;;;;5070493;28;20044;-63
2023/10/12 01:16:15;;;;;;;31.27;27.13;;;21.40;99.90;;;;;;5069686;28;20095;-65
2023/10/12 01:18:44;;;;;;;31.73;26.92;;;21.70;99.90;;;;;;5068126;28;20470;-63
2023/10/12 01:21:11;;;;;;;30.67;27.63;;;21.80;99.90;;;;;;5070167;28;20052;-63
2023/10/12 01:23:41;;;;;;;31.42;23.33;;;21.70;99.90;;;;;;5066969;28;20464;-64
2023/10/12 01:26:10;;;;;;;25.42;22.95;;;21.60;99.90;;;;;;5069840;28;20119;-63
2023/10/12 01:28:37;;;;;;;25.67;23.05;;;21.40;99.90;;;;;;5070538;28;20032;-63
2023/10/12 01:31:04;;;;;;;31.38;25.13;;;21.70;99.90;;;;;;5070537;28;20399;-64
2023/10/12 01:33:30;;;;;;;28.50;24.73;;;21.60;99.90;;;;;;5070318;28;20079;-63
2023/10/12 01:35:56;;;;;;;34.17;24.48;;;21.40;99.90;;;;;;5053848;28;20506;-64
2023/10/12 01:38:22;;;;;;;33.30;25.45;;;21.60;99.90;;;;;;5051099;28;20490;-63
2023/10/12 01:43:19;;;;;;;29.42;24.30;;;21.40;99.90;;;;;;5070000;28;20042;-63
2023/10/12 01:45:47;;;;;;;32.22;24.70;;;21.60;99.90;;;;;;5069401;28;20578;-63
2023/10/12 01:48:16;;;;;;;31.77;25.95;;;21.60;99.90;;;;;;5070610;28;20468;-63
2023/10/12 01:50:43;;;;;;;25.25;21.02;;;21.50;99.90;;;;;;5070172;28;20066;-64
2023/10/12 01:55:50;;;;;;;26.67;21.73;;;21.60;99.90;;;;;;5069471;28;20094;-63
2023/10/12 01:58:17;;;;;;;26.75;21.02;;;21.40;99.90;;;;;;5070004;28;20994;-64
2023/10/12 02:00:51;;;;;;;27.10;22.90;;;21.40;99.90;;;;;;5067747;28;20072;-64
2023/10/12 02:05:58;;;;;;;29.17;22.77;;;21.40;99.90;;;;;;5050514;28;20114;-64
2023/10/12 02:08:59;;;;;;;29.73;21.75;;;21.40;83.20;;;;;;5052157;28;20435;-63
2023/10/12 02:13:54;;;;;;;26.27;22.30;;;21.60;1.00;;;;;;5070002;28;20051;-63
2023/10/12 02:16:30;;;;;;;25.55;22.45;;;21.20;1.00;;;;;;5080099;28;20344;-63
2023/10/12 02:18:56;;;;;;;26.10;18.92;;;21.10;99.90;;;;;;5070537;28;20048;-63
2023/10/12 02:21:22;;;;;;;23.67;21.25;;;21.10;99.90;;;;;;5052236;28;20044;-63
2023/10/12 02:24:10;;;;;;;27.60;20.52;;;21.10;99.90;;;;;;5069568;28;20123;-63
2023/10/12 02:29:18;;;;;;;24.00;18.73;;;21.00;1.00;;;;;;5068542;28;20067;-63
2023/10/12 02:34:17;;;;;;;30.52;22.67;;;21.20;99.90;;;;;;5065046;28;20118;-63
2023/10/12 02:36:59;;;;;;;25.10;21.55;;;21.10;99.90;;;;;;5066359;28;20481;-63
2023/10/12 02:39:26;;;;;;;24.13;21.73;;;21.20;99.90;;;;;;5071246;28;20125;-63
2023/10/12 02:42:17;;;;;;;26.83;23.23;;;20.90;99.90;;;;;;5067419;28;20036;-63
2023/10/12 02:47:18;;;;;;;24.10;21.02;;;21.10;15.30;;;;;;5049346;28;20045;-63
2023/10/12 02:49:45;;;;;;;24.42;21.73;;;21.10;99.90;;;;;;5060347;28;20470;-63
2023/10/12 02:52:15;;;;;;;27.25;23.45;;;21.10;99.90;;;;;;5069618;28;20055;-64
2023/10/12 02:54:50;;;;;;;27.70;24.42;;;21.50;99.90;;;;;;5068875;28;20119;-64
2023/10/12 02:57:30;;;;;;;27.17;24.05;;;21.10;99.90;;;;;;5049535;28;20449;-63
2023/10/12 02:59:57;;;;;;;34.97;25.58;;;20.90;99.90;;;;;;5062364;28;20142;-63
2023/10/12 03:02:32;;;;;;;31.67;22.23;;;20.90;99.90;;;;;;5068729;28;20267;-63
2023/10/12 03:05:04;;;;;;;27.35;24.25;;;21.10;99.90;;;;;;5068343;28;20402;-63
2023/10/12 03:07:31;;;;;;;31.40;26.20;;;21.40;99.90;;;;;;5068228;28;20036;-64
2023/10/12 03:09:59;;;;;;;28.75;25.65;;;21.00;1.00;;;;;;5068851;28;20045;-68
2023/10/12 03:12:25;;;;;;;27.33;24.17;;;20.90;1.00;;;;;;5068412;28;20395;-67
2023/10/12 03:14:52;;;;;;;33.00;27.17;;;20.90;1.00;;;;;;5066096;28;20098;-67
2023/10/12 03:17:23;;;;;;;28.70;25.65;;;21.00;1.00;;;;;;5068613;28;20045;-68
2023/10/12 03:19:55;;;;;;;32.33;23.60;;;21.00;1.00;;;;;;5065350;28;20185;-67
2023/10/12 03:22:34;;;;;;;24.33;21.73;;;20.70;1.00;;;;;;5067970;28;20040;-67
2023/10/12 03:25:19;;;;;;;32.97;23.25;;;20.80;1.00;;;;;;5068330;28;20495;-67
2023/10/12 03:27:52;;;;;;;28.20;22.58;;;20.70;1.00;;;;;;5065738;28;20049;-68
2023/10/12 03:30:18;;;;;;;26.23;23.50;;;20.90;1.00;;;;;;5057675;28;20120;-67
2023/10/12 03:32:44;;;;;;;25.05;22.25;;;20.70;1.00;;;;;;5068353;28;20044;-68
2023/10/12 03:35:22;;;;;;;24.05;21.50;;;21.00;37.60;;;;;;5068565;28;20177;-68
2023/10/12 03:37:51;;;;;;;25.42;21.33;;;20.90;76.50;;;;;;5067855;28;20044;-68
2023/10/12 03:43:10;;;;;;;31.17;22.40;;;21.00;82.40;;;;;;5083154;28;20387;-68
2023/10/12 03:45:40;;;;;;;28.08;22.73;;;20.90;67.70;;;;;;5066395;28;20048;-68
2023/10/12 03:51:03;;;;;;;26.23;22.95;;;21.00;17.40;;;;;;5065598;28;20048;-68
2023/10/12 03:53:37;;;;;;;25.42;22.63;;;20.80;5.00;;;;;;5063772;28;20521;-68
2023/10/12 03:56:07;;;;;;;27.80;23.20;;;20.80;1.00;;;;;;5067860;28;20071;-68
2023/10/12 03:58:39;;;;;;;32.45;25.92;;;20.80;1.00;;;;;;5060811;28;20127;-67
2023/10/12 04:01:13;;;;;;;33.08;24.52;;;20.70;1.00;;;;;;5063857;28;20126;-68
2023/10/12 04:03:40;;;;;;;35.45;26.95;;;20.90;1.00;;;;;;5064638;28;20102;-67
2023/10/12 04:06:23;;;;;;;30.98;24.42;;;20.80;6.70;;;;;;5066152;28;20493;-68
2023/10/12 04:08:58;;;;;;;30.40;24.75;;;20.90;44.20;;;;;;5067787;28;20512;-67
2023/10/12 04:11:47;;;;;;;26.77;22.80;;;21.00;99.90;;;;;;5066353;28;20052;-67
2023/10/12 04:14:44;;;;;;;27.60;24.70;;;20.80;99.90;;;;;;5066803;28;20286;-67
2023/10/12 04:17:09;;;;;;;31.83;24.63;;;20.70;99.90;;;;;;5066955;28;20151;-67
2023/10/12 04:19:36;;;;;;;30.40;22.65;;;20.90;99.40;;;;;;5058545;28;20059;-63
2023/10/12 04:22:12;;;;;;;24.95;22.20;;;20.80;45.00;;;;;;5067559;28;20056;-64
2023/10/12 04:24:45;;;;;;;24.27;21.60;;;20.60;1.00;;;;;;5047145;28;20080;-63
2023/10/12 04:29:50;;;;;;;28.55;22.48;;;20.80;1.00;;;;;;5048594;28;20047;-63
2023/10/12 04:32:27;;;;;;;22.60;20.23;;;20.60;1.00;;;;;;5067190;28;20094;-63
2023/10/12 04:34:54;;;;;;;24.25;21.85;;;20.70;99.90;;;;;;5067656;28;20507;-63
2023/10/12 04:37:27;;;;;;;25.17;20.88;;;20.60;99.90;;;;;;5067331;28;20460;-62
2023/10/12 04:40:14;;;;;;;25.23;20.25;;;20.60;99.90;;;;;;5067068;28;20052;-63
2023/10/12 04:42:45;;;;;;;30.67;21.27;;;21.00;99.90;;;;;;5066236;28;20045;-63
2023/10/12 04:45:23;;;;;;;25.60;23.02;;;20.80;42.00;;;;;;5066486;28;20490;-64
2023/10/12 04:47:55;;;;;;;25.42;22.73;;;20.70;74.60;;;;;;5067736;28;20091;-64
2023/10/12 04:50:27;;;;;;;24.88;21.67;;;20.80;1.00;;;;;;5052030;28;20821;-63
2023/10/12 04:53:09;;;;;;;24.67;19.58;;;20.70;1.00;;;;;;5053182;28;20120;-63
2023/10/12 04:55:35;;;;;;;35.60;21.85;;;20.70;99.90;;;;;;5071339;28;20047;-63
2023/10/12 04:58:13;;;;;;;22.92;19.17;;;20.70;99.90;;;;;;5059367;28;20052;-63
2023/10/12 05:00:48;;;;;;;26.27;20.13;;;20.70;99.90;;;;;;5066872;28;20040;-63
2023/10/12 05:03:26;;;;;;;25.45;22.63;;;20.70;99.90;;;;;;5055278;28;20040;-63
2023/10/12 05:06:14;;;;;;;22.17;19.45;;;20.70;99.90;;;;;;5067438;28;20112;-63
2023/10/12 05:08:43;;;;;;;23.15;20.08;;;20.90;71.30;;;;;;5064236;28;20048;-63
2023/10/12 05:11:09;;;;;;;23.50;21.00;;;20.70;21.30;;;;;;5073651;28;20043;-63
2023/10/12 05:13:35;;;;;;;25.20;21.15;;;20.10;1.00;;;;;;5070643;28;20110;-63
2023/10/12 05:16:05;;;;;;;25.27;20.13;;;20.80;1.00;;;;;;5064109;28;20119;-63
2023/10/12 05:18:34;;;;;;;22.92;20.48;;;20.90;99.90;;;;;;5067721;28;20086;-63
2023/10/12 05:21:00;;;;;;;24.38;21.02;;;20.80;99.90;;;;;;5060523;28;20091;-63
2023/10/12 05:23:26;;;;;;;26.00;21.17;;;21.00;99.90;;;;;;5066646;28;20063;-64
2023/10/12 05:28:31;;;;;;;30.33;24.35;;;20.90;1.00;;;;;;5065954;28;20501;-62
2023/10/12 05:36:05;;;;;;;27.90;20.13;;;20.70;99.90;;;;;;5066028;28;20577;-67
2023/10/12 05:38:37;;;;;;;29.40;24.05;;;20.60;14.80;;;;;;5071347;28;20493;-67
2023/10/12 05:41:10;;;;;;;28.15;23.17;;;20.70;1.00;;;;;;5051901;28;20037;-67
2023/10/12 05:43:38;;;;;;;29.95;21.80;;;20.50;1.00;;;;;;5069243;28;20047;-66
2023/10/12 05:46:10;;;;;;;26.13;23.38;;;20.60;1.00;;;;;;5068051;28;20045;-66
2023/10/12 05:48:46;;;;;;;21.60;19.25;;;21.00;3.90;;;;;;5070617;28;20497;-67
2023/10/12 05:51:18;;;;;;;;;;;20.60;1.00;;;;;;5066967;28;20055;-66
2023/10/12 05:53:45;;;;;;;30.35;20.38;;;20.60;99.90;;;;;;5066123;28;19920;-67
2023/10/12 05:56:10;;;;;;;31.13;21.23;;;20.60;99.90;;;;;;5075567;28;20044;-68
2023/10/12 05:58:38;;;;;;;26.05;20.63;;;20.50;99.90;;;;;;5068855;28;20041;-66
2023/10/12 06:01:08;;;;;;;29.80;25.23;;;20.70;99.90;;;;;;5067307;28;20040;-66
2023/10/12 06:03:43;;;;;;;29.63;23.55;;;20.50;99.90;;;;;;5069346;28;20115;-67
2023/10/12 06:06:09;;;;;;;26.92;24.00;;;20.50;99.90;;;;;;5070813;28;20040;-67
2023/10/12 06:08:37;;;;;;;28.90;24.67;;;20.50;99.90;;;;;;5069885;28;20472;-68
2023/10/12 06:11:04;;;;;;;35.60;27.48;;;20.40;99.90;;;;;;5067840;28;20044;-68
2023/10/12 06:13:40;;;;;;;22.35;19.90;;;20.30;1.00;;;;;;5063915;28;20502;-67
2023/10/12 06:16:14;;;;;;;32.25;25.00;;;20.40;99.90;;;;;;5061518;28;20043;-69
2023/10/12 06:18:44;;;;;;;29.58;25.00;;;20.60;99.90;;;;;;5060118;28;20051;-68
2023/10/12 06:21:17;;;;;;;25.50;19.73;;;20.30;1.00;;;;;;5060603;28;20502;-68
2023/10/12 06:23:44;;;;;;;28.55;20.83;;;20.50;1.00;;;;;;5062531;28;20053;-65
2023/10/12 06:26:17;;;;;;;22.33;17.80;;;20.90;1.00;;;;;;5066079;28;20775;-63
2023/10/12 06:28:43;;;;;;;23.42;21.02;;;20.30;1.00;;;;;;5066368;28;20056;-65
2023/10/12 06:31:09;;;;;;;26.17;21.63;;;20.40;1.00;;;;;;5067809;28;20037;-65
2023/10/12 06:33:40;;;;;;;36.38;26.55;;;20.40;1.00;;;;;;5068652;28;20052;-65
2023/10/12 06:36:06;;;;;;;39.22;28.95;;;20.50;1.00;;;;;;5062171;28;20070;-65
2023/10/12 06:44:13;;;;;;;35.03;29.20;;;20.20;1.00;;;;;;5069708;28;20184;-60
2023/10/12 06:46:48;;;;;;;34.35;30.17;;;20.70;14.80;;;;;;5068717;28;20044;-61
2023/10/12 06:49:22;;;;;;;33.22;29.65;;;20.00;99.90;;;;;;5065663;28;20439;-60
2023/10/12 06:51:53;;;;;;;30.10;26.52;;;20.00;99.90;;;;;;5064881;28;20059;-60
2023/10/12 07:02:27;;;;;;;23.70;21.17;;;20.60;99.90;;;;;;5060686;28;20071;-63
2023/10/12 07:04:53;;;;;;;27.05;19.88;;;20.70;99.90;;;;;;5060144;28;20045;-64
2023/10/12 07:07:30;;;;;;;23.95;20.33;;;21.20;99.90;;;;;;5063150;28;20040;-62
2023/10/12 07:12:41;;;;;;;26.75;22.00;;;21.10;99.90;;;;;;5065343;28;20052;-66
2023/10/12 07:15:11;;;;;;;35.10;31.50;;;21.20;99.90;;;;;;5064274;28;20192;-66
2023/10/12 07:17:37;;;;;;;33.67;30.33;;;21.30;99.90;;;;;;5063563;28;20209;-66
2023/10/12 07:20:06;;;;;;;40.05;36.13;;;21.30;99.90;;;;;;5066019;28;20576;-67
2023/10/12 07:22:39;;;;;;;34.05;30.42;;;21.20;99.90;;;;;;5064766;28;20715;-66
2023/10/12 07:25:04;;;;;;;30.65;27.33;;;21.30;99.90;;;;;;5065309;28;20550;-66
2023/10/12 07:27:48;;;;;;;29.45;26.25;;;21.40;99.90;;;;;;5065376;28;20048;-66
2023/10/12 07:33:04;;;;;;;37.38;30.50;;;21.70;99.90;;;;;;5064827;28;20075;-67
2023/10/12 07:35:32;;;;;;;36.53;30.75;;;21.80;99.90;;;;;;5063090;28;20044;-67
2023/10/12 07:38:02;;;;;;;34.88;29.23;;;21.90;99.90;;;;;;5066743;28;20102;-66
2023/10/12 07:40:36;;;;;;;32.35;28.77;;;21.70;99.90;;;;;;5065168;28;20052;-66
2023/10/12 07:43:04;;;;;;;32.92;25.63;;;22.00;99.90;;;;;;5066302;28;20502;-67
2023/10/12 07:45:37;;;;;;;30.50;27.23;;;21.80;99.90;;;;;;5064930;28;20036;-66
2023/10/12 07:48:09;;;;;;;30.30;27.17;;;21.80;99.90;;;;;;5064317;28;20109;-68
2023/10/12 07:50:45;;;;;;;32.40;28.48;;;22.10;99.90;;;;;;5064260;28;20037;-66
2023/10/12 07:53:28;;;;;;;30.73;27.63;;;22.10;99.90;;;;;;5065092;28;20040;-66
2023/10/12 07:56:00;;;;;;;30.52;27.20;;;21.90;99.90;;;;;;5065031;28;20494;-66
2023/10/12 07:58:29;;;;;;;37.05;32.38;;;21.90;99.90;;;;;;5063749;28;20047;-66
2023/10/12 08:03:50;;;;;;;38.60;33.10;;;22.40;99.90;;;;;;5065042;28;20071;-66
2023/10/12 08:06:30;;;;;;;36.67;32.80;;;22.10;99.90;;;;;;5063797;28;20047;-66
2023/10/12 08:09:19;;;;;;;40.08;32.35;;;21.90;99.90;;;;;;5063945;28;20047;-66
2023/10/12 08:11:45;;;;;;;39.10;33.58;;;22.10;99.90;;;;;;5064147;28;20044;-66
2023/10/12 08:14:39;;;;;;;37.13;33.13;;;22.00;99.90;;;;;;5066403;28;20036;-66
2023/10/12 08:19:56;;;;;;;35.95;32.13;;;22.10;99.90;;;;;;5066382;28;20060;-66
2023/10/12 08:22:29;;;;;;;37.72;31.30;;;22.30;99.90;;;;;;5062337;28;20083;-66
2023/10/12 08:25:04;;;;;;;34.95;30.42;;;21.90;99.90;;;;;;5063328;28;20048;-66
2023/10/12 08:27:43;;;;;;;33.33;29.95;;;21.90;99.90;;;;;;5062561;28;20080;-66
2023/10/12 08:30:21;;;;;;;34.20;30.52;;;21.90;99.90;;;;;;5063300;28;20040;-66
2023/10/12 08:32:57;;;;;;;35.03;31.15;;;22.10;99.90;;;;;;5061296;28;20044;-67
2023/10/12 08:35:35;;;;;;;30.73;27.42;;;22.00;99.90;;;;;;5061769;28;20132;-66
2023/10/12 08:38:11;;;;;;;27.15;24.52;;;22.00;99.90;;;;;;5059715;28;20044;-66
2023/10/12 08:40:53;;;;;;;29.30;24.92;;;22.20;99.90;;;;;;5060253;28;20045;-66
2023/10/12 08:43:34;;;;;;;30.38;23.83;;;22.30;99.90;;;;;;5062592;28;20055;-66
2023/10/12 08:46:01;;;;;;;28.98;26.08;;;22.40;99.90;;;;;;5063727;28;20040;-66
2023/10/12 08:48:26;;;;;;;27.40;24.30;;;22.20;99.90;;;;;;5064709;28;20036;-66
2023/10/12 08:51:08;;;;;;;31.77;26.35;;;22.40;99.90;;;;;;5065035;28;20041;-66
2023/10/12 08:53:35;;;;;;;25.52;22.75;;;23.10;99.90;;;;;;5063284;28;20424;-66
2023/10/12 08:56:06;;;;;;;26.85;24.08;;;22.50;99.90;;;;;;5061087;28;20177;-66
2023/10/12 08:58:40;;;;;;;23.55;21.13;;;22.90;99.90;;;;;;5062048;28;20033;-66
2023/10/12 09:01:08;;;;;;;27.13;23.58;;;22.80;99.90;;;;;;5059735;28;20051;-66
2023/10/12 09:03:46;;;;;;;29.27;23.98;;;22.60;99.90;;;;;;5062612;28;20036;-66
2023/10/12 09:08:57;;;;;;;24.15;19.20;;;23.10;99.90;;;;;;5062077;28;20079;-66
2023/10/12 09:11:34;;;;;;;29.35;24.42;;;22.90;99.90;;;;;;5066516;28;20384;-67
2023/10/12 09:14:11;;;;;;;26.02;21.73;;;22.80;99.90;;;;;;5066691;28;20154;-66
2023/10/12 09:16:37;;;;;;;24.83;21.95;;;23.10;99.90;;;;;;5066589;28;20093;-66
2023/10/12 09:19:07;;;;;;;26.98;23.65;;;23.20;99.90;;;;;;5065398;28;20832;-66
2023/10/12 09:21:39;;;;;;;23.00;20.58;;;23.00;99.90;;;;;;5067990;28;20177;-66
2023/10/12 09:24:06;;;;;;;24.08;21.13;;;22.90;99.90;;;;;;5067384;28;20133;-66
2023/10/12 09:26:37;;;;;;;25.80;21.23;;;23.00;99.90;;;;;;5065663;28;20037;-66
2023/10/12 09:36:55;;;;;;;24.05;20.20;;;23.30;99.90;;;;;;5059722;28;20052;-64
2023/10/12 09:39:34;;;;;;;27.15;18.15;;;23.50;99.90;;;;;;5065566;28;20044;-63
2023/10/12 09:42:09;;;;;;;24.70;18.17;;;23.40;99.90;;;;;;5067194;28;20391;-63
2023/10/12 09:44:39;;;;;;;28.40;17.50;;;23.40;99.90;;;;;;5064875;28;20045;-63
2023/10/12 09:47:11;;;;;;;21.90;19.40;;;23.40;99.90;;;;;;5065632;28;20037;-65
2023/10/12 09:49:46;;;;;;;20.35;18.23;;;23.40;99.90;;;;;;5062646;28;20071;-63
2023/10/12 09:52:13;;;;;;;21.05;15.38;;;23.60;1.00;;;;;;5062864;28;20090;-63
2023/10/12 09:55:00;;;;;;;21.15;15.13;;;23.60;47.10;;;;;;5065978;28;20064;-66
2023/10/12 09:57:26;;;;;;;23.77;19.63;;;23.80;1.00;;;;;;5066857;28;20067;-63
2023/10/12 10:00:17;;;;;;;26.98;18.50;;;23.60;1.00;;;;;;5067277;28;20453;-63
2023/10/12 10:02:44;;;;;;;20.75;17.90;;;23.60;1.00;;;;;;5067245;28;20049;-63
2023/10/12 10:07:52;;;;;;;19.63;17.13;;;23.70;99.90;;;;;;5066599;28;20056;-63
2023/10/12 10:10:33;;;;;;;19.42;16.77;;;23.70;1.00;;;;;;5068959;28;20398;-63
2023/10/12 10:13:00;;;;;;;20.40;17.02;;;23.70;99.90;;;;;;5065753;28;20113;-63
2023/10/12 10:15:36;;;;;;;19.48;16.33;;;23.60;1.00;;;;;;5064204;28;20464;-62
2023/10/12 10:18:04;;;;;;;20.27;15.75;;;23.80;99.90;;;;;;5061302;28;20127;-64
2023/10/12 10:22:58;;;;;;;23.60;15.05;;;23.90;99.90;;;;;;5062347;28;20466;-62
2023/10/12 10:25:33;;;;;;;25.20;17.60;;;23.80;99.90;;;;;;5062598;28;20082;-63
2023/10/12 10:28:06;;;;;;;22.92;18.40;;;23.90;99.90;;;;;;5062037;28;20555;-63
2023/10/12 10:30:42;;;;;;;18.77;14.57;;;23.90;99.90;;;;;;5064033;28;20032;-63
2023/10/12 10:33:12;;;;;;;21.27;15.75;;;23.90;1.00;;;;;;5065722;28;20064;-62
2023/10/12 10:35:55;;;;;;;17.45;13.40;;;23.90;1.00;;;;;;5065972;28;20540;-62
2023/10/12 10:38:21;;;;;;;17.35;15.55;;;23.90;99.90;;;;;;5066725;28;20131;-62
2023/10/12 10:40:49;;;;;;;20.52;13.55;;;23.80;99.90;;;;;;5068256;28;20127;-69
2023/10/12 10:43:15;;;;;;;20.05;15.05;;;23.90;99.90;;;;;;5065713;28;20040;-70
2023/10/12 10:45:56;;;;;;;19.67;17.65;;;23.70;99.90;;;;;;5068235;28;20398;-68
2023/10/12 10:48:27;;;;;;;23.73;16.13;;;23.80;99.90;;;;;;5064582;28;20076;-69
2023/10/12 10:50:53;;;;;;;19.92;16.10;;;23.70;99.90;;;;;;5066240;28;20040;-69
2023/10/12 10:53:26;;;;;;;21.17;16.38;;;24.30;99.90;;;;;;5066615;28;20464;-69
2023/10/12 10:55:52;;;;;;;23.60;16.10;;;23.90;99.90;;;;;;5066435;28;20045;-69
2023/10/12 10:58:22;;;;;;;17.58;15.70;;;24.30;99.90;;;;;;5063501;28;20040;-69
2023/10/12 11:00:56;;;;;;;19.52;17.10;;;23.80;99.90;;;;;;5063174;28;20135;-68
2023/10/12 11:03:22;;;;;;;17.48;13.82;;;23.90;99.90;;;;;;5062163;28;20041;-68
2023/10/12 11:05:48;;;;;;;17.05;13.75;;;24.20;28.70;;;;;;5065676;28;20541;-69
2023/10/12 11:08:22;;;;;;;18.35;13.57;;;23.90;1.00;;;;;;5060722;28;20039;-69
2023/10/12 11:13:33;;;;;;;18.40;13.98;;;23.90;1.00;;;;;;5061375;28;21679;-69
2023/10/12 11:16:20;;;;;;;19.73;15.98;;;23.90;1.00;;;;;;5061579;28;20051;-68
2023/10/12 11:18:51;;;;;;;18.48;16.52;;;24.00;1.00;;;;;;5058851;28;20041;-68
2023/10/12 11:21:17;;;;;;;17.70;14.90;;;23.90;1.00;;;;;;5062010;28;20094;-67
2023/10/12 11:23:46;;;;;;;22.40;16.95;;;24.20;1.00;;;;;;5060501;28;20064;-67
2023/10/12 11:26:18;;;;;;;19.38;16.58;;;23.90;1.00;;;;;;5063463;28;20032;-64
2023/10/12 11:28:46;;;;;;;21.08;16.92;;;23.90;1.00;;;;;;5059180;28;20032;-65
2023/10/12 11:31:30;;;;;;;21.40;19.17;;;23.90;1.00;;;;;;5061508;28;20037;-67
2023/10/12 11:33:56;;;;;;;19.67;17.70;;;24.00;1.00;;;;;;5058018;28;20044;-67
2023/10/12 11:36:26;;;;;;;21.30;18.80;;;23.90;1.00;;;;;;5064598;28;20068;-68
2023/10/12 11:38:58;;;;;;;20.10;17.70;;;23.90;1.00;;;;;;5064294;28;20037;-67
2023/10/12 11:41:25;;;;;;;18.13;16.00;;;23.80;1.00;;;;;;5061820;28;20498;-67
2023/10/12 11:43:53;;;;;;;19.70;17.45;;;24.30;1.00;;;;;;5065604;28;20063;-67
2023/10/12 11:46:19;;;;;;;20.75;18.33;;;23.70;1.00;;;;;;5064993;28;20052;-68
2023/10/12 11:48:59;;;;;;;21.75;17.20;;;23.70;1.00;;;;;;5063843;28;20406;-67
2023/10/12 11:51:24;;;;;;;18.13;16.17;;;23.70;1.00;;;;;;5063652;28;20048;-61
2023/10/12 11:53:53;;;;;;;19.75;14.90;;;23.70;1.00;;;;;;5064793;28;20044;-63
2023/10/12 11:56:22;;;;;;;20.70;16.58;;;23.80;1.00;;;;;;5064312;28;20560;-62
2023/10/12 11:58:55;;;;;;;17.63;15.77;;;23.70;1.00;;;;;;5059695;28;20494;-62
2023/10/12 12:01:29;;;;;;;18.35;14.93;;;23.60;1.00;;;;;;5060270;28;20047;-64
2023/10/12 12:03:55;;;;;;;17.17;15.40;;;23.60;1.00;;;;;;5060753;28;20068;-63
2023/10/12 12:06:21;;;;;;;18.02;15.05;;;24.10;99.90;;;;;;5061602;28;20408;-62
2023/10/12 12:08:50;;;;;;;18.92;16.45;;;23.50;1.00;;;;;;5063269;28;20040;-62
2023/10/12 12:11:20;;;;;;;18.55;14.63;;;23.30;99.90;;;;;;5060404;28;20232;-63
2023/10/12 12:13:51;;;;;;;21.02;17.15;;;23.50;99.90;;;;;;5062901;28;20151;-64
2023/10/12 12:16:20;;;;;;;20.27;17.73;;;23.80;99.90;;;;;;5061725;28;20399;-63
2023/10/12 12:18:52;;;;;;;24.60;17.20;;;23.40;99.90;;;;;;5061090;28;20051;-63
2023/10/12 12:21:34;;;;;;;19.58;17.58;;;23.30;1.00;;;;;;5078115;28;20132;-62
2023/10/12 12:26:46;;;;;;;17.20;15.27;;;23.30;1.00;;;;;;5062318;28;20127;-62
2023/10/12 12:29:15;;;;;;;19.83;16.38;;;23.20;99.90;;;;;;5064435;28;20159;-65
2023/10/12 12:31:41;;;;;;;20.23;17.23;;;23.20;99.90;;;;;;5061511;28;20044;-63
2023/10/12 12:34:06;;;;;;;19.35;17.27;;;23.10;99.90;;;;;;5062752;28;20455;-61
2023/10/12 12:36:33;;;;;;;20.02;17.77;;;23.10;99.90;;;;;;5063116;28;20044;-62
2023/10/12 12:39:00;;;;;;;22.73;19.02;;;23.00;1.00;;;;;;5061871;28;20048;-61
2023/10/12 12:41:29;;;;;;;22.88;17.58;;;23.10;1.00;;;;;;5061414;28;20045;-63
2023/10/12 12:43:58;;;;;;;19.17;16.70;;;23.10;1.00;;;;;;5060692;28;20055;-64
2023/10/12 12:46:25;;;;;;;19.52;16.65;;;23.00;1.00;;;;;;5059068;28;20037;-62
2023/10/12 12:48:51;;;;;;;20.20;18.10;;;23.10;1.00;;;;;;5060700;28;20394;-62
2023/10/12 12:51:18;;;;;;;22.90;15.95;;;22.90;1.00;;;;;;5061354;28;20494;-63
2023/10/12 12:53:46;;;;;;;22.73;18.60;;;23.00;1.00;;;;;;5058318;28;20339;-62
2023/10/12 12:56:20;;;;;;;21.90;18.27;;;23.00;1.00;;;;;;5063060;28;20048;-61
2023/10/12 12:58:48;;;;;;;22.70;18.83;;;23.00;1.00;;;;;;5061139;28;20514;-62
2023/10/12 13:01:18;;;;;;;20.40;15.52;;;23.00;1.00;;;;;;5058489;28;20044;-65
2023/10/12 13:03:45;;;;;;;18.52;15.13;;;22.90;1.00;;;;;;5062168;28;20049;-66
2023/10/12 13:06:12;;;;;;;22.00;17.83;;;22.90;1.00;;;;;;5061191;28;20036;-65
2023/10/12 13:08:38;;;;;;;25.02;17.80;;;22.90;1.00;;;;;;5060893;28;20576;-66
2023/10/12 13:11:09;;;;;;;25.52;17.10;;;23.00;1.00;;;;;;5062337;28;20764;-66
2023/10/12 13:13:35;;;;;;;22.20;17.05;;;22.90;1.00;;;;;;5063270;28;20849;-66
2023/10/12 13:16:06;;;;;;;20.15;16.92;;;23.00;1.00;;;;;;5061863;28;20045;-65
2023/10/12 13:18:35;;;;;;;19.23;16.77;;;22.90;1.00;;;;;;5062150;28;20047;-66
2023/10/12 13:21:06;;;;;;;22.17;17.83;;;23.00;1.00;;;;;;5062312;28;20127;-66
2023/10/12 13:23:33;;;;;;;22.20;19.52;;;23.00;6.20;;;;;;5062364;28;20064;-66
2023/10/12 13:26:08;;;;;;;22.45;19.67;;;22.90;29.70;;;;;;5061726;28;20041;-65
2023/10/12 13:28:34;;;;;;;26.17;20.50;;;23.00;61.80;;;;;;5059708;28;20052;-66
2023/10/12 13:31:01;;;;;;;24.73;20.17;;;23.00;99.90;;;;;;5062021;28;20036;-66
2023/10/12 13:33:28;;;;;;;26.40;23.42;;;23.20;99.90;;;;;;5062732;28;20924;-66
2023/10/12 13:35:56;;;;;;;26.70;23.02;;;22.90;99.90;;;;;;5058699;28;20048;-65
2023/10/12 13:38:22;;;;;;;26.17;23.27;;;23.30;99.90;;;;;;5058154;28;20052;-65
2023/10/12 13:40:50;;;;;;;24.33;21.77;;;22.80;99.90;;;;;;5053840;28;20048;-65
2023/10/12 13:43:21;;;;;;;29.75;22.95;;;22.80;99.90;;;;;;5052706;28;20036;-65
2023/10/12 13:45:52;;;;;;;24.38;21.80;;;22.80;99.90;;;;;;5053305;28;20049;-64
2023/10/12 13:48:25;;;;;;;25.27;22.17;;;22.70;1.00;;;;;;5052868;28;20040;-64
2023/10/12 13:51:04;;;;;;;27.55;22.67;;;22.60;1.00;;;;;;5056007;28;20402;-65
2023/10/12 13:53:38;;;;;;;24.20;21.58;;;22.60;1.00;;;;;;5057830;28;20126;-65
2023/10/12 13:56:06;;;;;;;26.42;23.17;;;22.70;23.40;;;;;;5060122;28;20128;-65
2023/10/12 13:58:34;;;;;;;28.58;23.70;;;22.50;99.90;;;;;;5066719;28;20079;-65
2023/10/12 14:01:04;;;;;;;26.65;23.90;;;22.60;99.90;;;;;;5068162;28;20041;-65
2023/10/12 14:03:35;;;;;;;24.90;22.33;;;22.80;99.90;;;;;;5067424;28;20081;-65
2023/10/12 14:06:02;;;;;;;26.00;23.25;;;22.80;99.90;;;;;;5069114;28;20043;-65
2023/10/12 14:08:32;;;;;;;28.70;24.63;;;22.50;99.90;;;;;;5067963;28;20032;-65
2023/10/12 14:11:03;;;;;;;32.03;24.88;;;22.40;1.00;;;;;;5064279;28;20075;-64
2023/10/12 14:13:29;;;;;;;32.30;25.60;;;22.50;1.00;;;;;;5066140;28;20063;-65
2023/10/12 14:15:54;;;;;;;26.73;23.92;;;22.40;67.50;;;;;;5062978;28;20036;-65
2023/10/12 14:18:20;;;;;;;27.63;23.83;;;22.50;99.90;;;;;;5067622;28;20449;-66
2023/10/12 14:20:47;;;;;;;26.83;23.70;;;22.40;99.90;;;;;;5068343;28;20452;-65
2023/10/12 14:23:13;;;;;;;26.55;23.83;;;22.50;99.90;;;;;;5064381;28;20053;-64